Time;durP1;ratioP1;P1;durP2;ratioP2;P2;SDS_P1;SDS_P2;PMS_P1;PMS_P2;Temp;Humidity;BMP_temperature;BMP_pressure;BME280_temperature;BME280_humidity;BME280_pressure;Samples;Min_cycle;Max_cycle;Signal;HPM_P1;HPM_P2
2023/05/15 00:02:09;;;;;;;6.75;3.10;;;;;;;10.60;100.00;100619.94;5009021;28;20038;-75
2023/05/15 00:04:34;;;;;;;4.45;2.60;;;;;;;11.11;100.00;100665.56;5005913;28;20033;-74
2023/05/15 00:07:00;;;;;;;4.55;2.88;;;;;;;10.06;100.00;100541.03;5014478;28;20622;-75
2023/05/15 00:09:25;;;;;;;6.47;4.00;;;;;;;10.75;100.00;100633.13;5018934;28;20069;-74
2023/05/15 00:11:51;;;;;;;5.18;3.25;;;;;;;10.06;100.00;100552.38;5015776;28;20057;-74
2023/05/15 00:14:17;;;;;;;4.57;3.10;;;;;;;10.76;100.00;100612.09;5011030;28;20050;-73
2023/05/15 00:16:42;;;;;;;8.70;3.63;;;;;;;10.80;100.00;100610.38;5015721;28;20041;-73
2023/05/15 00:19:08;;;;;;;4.75;3.33;;;;;;;10.70;100.00;100654.09;5015000;28;20046;-78
2023/05/15 00:21:33;;;;;;;5.97;3.17;;;;;;;10.96;100.00;100658.56;5032286;28;20493;-75
2023/05/15 00:23:59;;;;;;;6.55;3.58;;;;;;;10.22;100.00;100506.13;5035554;28;20045;-74
2023/05/15 00:26:25;;;;;;;4.28;2.65;;;;;;;10.26;100.00;100559.47;5044534;28;20060;-73
2023/05/15 00:28:50;;;;;;;4.90;2.75;;;;;;;10.35;100.00;100578.78;5038102;28;20047;-80
2023/05/15 00:31:16;;;;;;;5.00;2.75;;;;;;;10.86;100.00;100649.75;5027566;28;20437;-73
2023/05/15 00:33:41;;;;;;;7.03;3.78;;;;;;;10.60;100.00;100635.69;5036678;28;20053;-75
2023/05/15 00:36:07;;;;;;;3.95;2.90;;;;;;;9.91;100.00;100505.16;5035236;28;20056;-78
2023/05/15 00:38:33;;;;;;;4.78;2.88;;;;;;;10.11;100.00;100523.56;5024625;28;20046;-74
2023/05/15 00:41:00;;;;;;;4.70;3.00;;;;;;;10.02;100.00;100536.63;5015349;28;20036;-77
2023/05/15 00:43:27;;;;;;;3.78;2.65;;;;;;;10.48;100.00;100618.16;5011442;28;20414;-76
2023/05/15 00:45:53;;;;;;;5.18;3.38;;;;;;;9.83;100.00;100517.31;5011753;28;20052;-75
2023/05/15 00:48:21;;;;;;;4.43;2.42;;;;;;;10.35;100.00;100609.38;5012939;28;20038;-76
2023/05/15 00:50:50;;;;;;;9.32;4.22;;;;;;;10.42;100.00;100598.03;5006987;28;20061;-76
2023/05/15 00:53:17;;;;;;;4.35;3.38;;;;;;;9.60;100.00;100470.94;5014133;28;20053;-74
2023/05/15 00:55:45;;;;;;;4.03;2.63;;;;;;;10.49;100.00;100576.19;5006015;28;20052;-74
2023/05/15 00:58:11;;;;;;;4.95;3.38;;;;;;;9.34;100.00;100358.22;5017988;28;20050;-75
2023/05/15 01:00:37;;;;;;;4.03;2.85;;;;;;;10.55;100.00;100551.69;5007408;28;20054;-77
2023/05/15 01:03:04;;;;;;;4.60;2.83;;;;;;;9.88;100.00;100461.47;5009152;28;20057;-75
2023/05/15 01:05:30;;;;;;;4.53;2.85;;;;;;;10.00;100.00;100438.78;5015013;28;20048;-75
2023/05/15 01:08:11;;;;;;;3.97;2.88;;;;;;;10.90;100.00;100543.00;5007293;28;20026;-75
2023/05/15 01:10:40;;;;;;;5.00;2.72;;;;;;;10.32;100.00;100467.72;5004560;28;20037;-78
2023/05/15 01:13:08;;;;;;;3.47;2.83;;;;;;;10.79;100.00;100548.25;4998270;28;20418;-75
2023/05/15 01:15:33;;;;;;;5.55;3.53;;;;;;;10.49;100.00;100576.19;5014755;28;20485;-75
2023/05/15 01:17:59;;;;;;;5.63;3.80;;;;;;;10.08;100.00;100547.16;5011527;28;20045;-76
2023/05/15 01:20:26;;;;;;;5.10;3.60;;;;;;;10.06;100.00;100543.66;5007353;28;20065;-76
2023/05/15 01:23:11;;;;;;;5.30;3.80;;;;;;;10.01;100.00;100548.00;5019852;28;20133;-74
2023/05/15 01:25:58;;;;;;;5.53;2.67;;;;;;;9.99;100.00;100561.09;5008424;28;20084;-75
2023/05/15 01:28:32;;;;;;;4.82;2.95;;;;;;;9.91;100.00;100541.84;5009564;28;20072;-79
2023/05/15 01:31:05;;;;;;;6.00;3.55;;;;;;;9.03;100.00;100404.28;5007394;28;20468;-75
2023/05/15 01:33:39;;;;;;;7.63;3.47;;;;;;;8.89;100.00;100401.56;5013562;28;20077;-77
2023/05/15 01:36:05;;;;;;;4.97;3.25;;;;;;;9.86;100.00;100565.41;5011511;28;20049;-76
2023/05/15 01:38:37;;;;;;;9.35;3.53;;;;;;;9.71;100.00;100560.94;5007614;28;20053;-77
2023/05/15 01:41:28;;;;;;;5.85;4.32;;;;;;;9.01;100.00;100414.75;5008219;28;20049;-76
2023/05/15 01:44:01;;;;;;;6.72;3.90;;;;;;;9.60;100.00;100540.78;5016942;28;20065;-77
2023/05/15 01:46:30;;;;;;;7.53;4.13;;;;;;;9.45;100.00;100549.44;5019259;28;20061;-75
2023/05/15 01:48:57;;;;;;;6.30;4.03;;;;;;;9.41;100.00;100540.69;5005406;28;20137;-77
2023/05/15 01:51:25;;;;;;;8.55;4.50;;;;;;;8.86;100.00;100446.03;5015637;28;20034;-74
2023/05/15 01:53:52;;;;;;;7.07;3.50;;;;;;;9.63;100.00;100562.66;5007751;28;20453;-78
2023/05/15 01:56:21;;;;;;;4.85;3.38;;;;;;;9.71;100.00;100581.03;5011641;28;20052;-77
2023/05/15 01:58:48;;;;;;;5.47;3.70;;;;;;;9.49;100.00;100561.69;5014232;28;20117;-75
2023/05/15 02:01:15;;;;;;;6.15;2.80;;;;;;;9.23;100.00;100544.03;5009440;28;20049;-78
2023/05/15 02:03:41;;;;;;;3.95;2.50;;;;;;;9.29;100.00;100540.59;5017735;28;20061;-75
2023/05/15 02:06:07;;;;;;;6.00;3.10;;;;;;;9.35;100.00;100556.34;5014934;28;20060;-75
2023/05/15 02:08:34;;;;;;;4.60;2.88;;;;;;;9.15;100.00;100542.22;5013751;28;20076;-77
2023/05/15 02:11:02;;;;;;;5.38;3.55;;;;;;;9.18;100.00;100543.13;5009492;28;20190;-74
2023/05/15 02:13:30;;;;;;;7.75;3.15;;;;;;;8.45;100.00;100409.97;5018446;28;20473;-74
2023/05/15 02:15:56;;;;;;;1.75;1.38;;;;;;;8.29;100.00;100400.19;5027339;28;20045;-77
2023/05/15 02:18:22;;;;;;;5.13;3.17;;;;;;;7.55;100.00;100274.97;5026795;28;20340;-74
2023/05/15 02:20:47;;;;;;;6.18;3.28;;;;;;;9.12;100.00;100560.53;5033961;28;20582;-77
2023/05/15 02:23:13;;;;;;;7.03;4.45;;;;;;;8.90;100.00;100535.91;5022162;28;20029;-76
2023/05/15 02:26:00;;;;;;;7.32;4.65;;;;;;;8.99;100.00;100568.28;5024834;28;20405;-76
2023/05/15 02:28:49;;;;;;;1.75;1.23;;;;;;;8.99;100.00;100565.66;5013429;28;20704;-75
2023/05/15 02:31:41;;;;;;;6.53;3.63;;;;;;;8.03;100.00;100408.69;5032390;28;20505;-77
2023/05/15 02:34:06;;;;;;;4.65;2.97;;;;;;;8.91;100.00;100571.69;5033903;28;20048;-77
2023/05/15 02:36:39;;;;;;;5.47;4.05;;;;;;;8.45;100.00;100476.22;5027664;28;20137;-76
2023/05/15 02:39:05;;;;;;;0.93;0.77;;;;;;;8.28;100.00;100461.19;5030021;28;20485;-77
2023/05/15 02:41:34;;;;;;;6.63;4.07;;;;;;;8.56;100.00;100512.94;5033250;28;20041;-79
2023/05/15 02:44:00;;;;;;;5.20;3.35;;;;;;;8.66;100.00;100550.50;5033005;28;20068;-76
2023/05/15 02:46:27;;;;;;;6.10;3.22;;;;;;;8.89;100.00;100571.66;5036401;28;20108;-75
2023/05/15 02:48:53;;;;;;;0.63;0.60;;;;;;;8.75;100.00;100537.50;5027953;28;20131;-75
2023/05/15 02:51:19;;;;;;;5.38;3.13;;;;;;;8.01;100.00;100413.03;5030094;28;20057;-75
2023/05/15 02:53:45;;;;;;;5.85;3.83;;;;;;;8.37;100.00;100480.44;5031636;28;20045;-75
2023/05/15 02:56:11;;;;;;;2.63;1.50;;;;;;;8.61;100.00;100520.81;5022302;28;20049;-78
2023/05/15 02:58:37;;;;;;;8.38;3.85;;;;;;;8.76;100.00;100544.53;5024287;28;20058;-77
2023/05/15 03:01:03;;;;;;;5.85;3.83;;;;;;;8.42;100.00;100497.09;5025252;28;20060;-77
2023/05/15 03:03:29;;;;;;;5.53;3.88;;;;;;;8.00;100.00;100395.56;5024870;28;20600;-74
2023/05/15 03:05:54;;;;;;;6.43;3.55;;;;;;;7.90;100.00;100388.50;5026454;28;20168;-74
2023/05/15 03:08:20;;;;;;;1.25;1.10;;;;;;;8.70;100.00;100539.22;5028424;28;20045;-74
2023/05/15 03:10:45;;;;;;;1.95;1.58;;;;;;;7.18;100.00;100286.75;5025001;28;20038;-75
2023/05/15 03:13:11;;;;;;;0.50;0.40;;;;;;;8.60;100.00;100521.69;5029739;28;20053;-74
2023/05/15 03:15:36;;;;;;;0.75;0.73;;;;;;;7.80;100.00;100382.31;5035422;28;20049;-74
2023/05/15 03:18:02;;;;;;;1.38;1.27;;;;;;;8.56;100.00;100480.66;5025409;28;20460;-73
2023/05/15 03:20:27;;;;;;;4.32;2.88;;;;;;;8.24;100.00;100380.13;5043159;28;20705;-74
2023/05/15 03:22:53;;;;;;;7.63;4.82;;;;;;;8.37;100.00;100373.25;5027523;28;20033;-77
2023/05/15 03:25:19;;;;;;;5.05;3.55;;;;;;;8.62;100.00;100488.59;5029699;28;20053;-80
2023/05/15 03:27:45;;;;;;;7.28;4.13;;;;;;;8.79;100.00;100513.13;5025847;28;20053;-75
2023/05/15 03:30:11;;;;;;;6.53;4.25;;;;;;;8.71;100.00;100529.63;5038751;28;20072;-79
2023/05/15 03:32:36;;;;;;;6.03;3.97;;;;;;;9.00;100.00;100542.97;5032969;28;20033;-73
2023/05/15 03:35:02;;;;;;;5.40;3.75;;;;;;;9.27;100.00;100569.41;5033181;28;20033;-76
2023/05/15 03:37:27;;;;;;;6.32;3.97;;;;;;;9.00;100.00;100495.88;5032420;28;20136;-75
2023/05/15 03:39:53;;;;;;;5.03;3.03;;;;;;;8.28;100.00;100377.53;5032226;28;20053;-76
2023/05/15 03:42:22;;;;;;;5.05;3.45;;;;;;;9.33;100.00;100521.41;5024070;28;20068;-76
2023/05/15 03:44:48;;;;;;;5.43;3.55;;;;;;;9.21;100.00;100511.72;5030147;28;20057;-75
2023/05/15 03:47:14;;;;;;;5.95;3.67;;;;;;;9.22;100.00;100537.03;5033279;28;20401;-76
2023/05/15 03:49:40;;;;;;;2.17;0.77;;;;;;;8.19;100.00;100379.22;5022737;28;20402;-75
2023/05/15 03:52:06;;;;;;;4.68;2.80;;;;;;;8.71;100.00;100453.75;5035171;28;20100;-74
2023/05/15 03:54:32;;;;;;;6.13;4.13;;;;;;;9.24;100.00;100524.84;5033984;28;20053;-75
2023/05/15 03:56:57;;;;;;;7.45;4.43;;;;;;;8.61;100.00;100400.50;5029717;28;20421;-76
2023/05/15 03:59:23;;;;;;;5.40;3.50;;;;;;;9.24;100.00;100521.34;5032995;28;20044;-75
2023/05/15 04:01:48;;;;;;;6.80;3.83;;;;;;;9.27;100.00;100490.84;5034029;28;20041;-76
2023/05/15 04:04:14;;;;;;;5.47;4.13;;;;;;;9.48;100.00;100513.66;5030291;28;20052;-74
2023/05/15 04:06:39;;;;;;;4.05;2.75;;;;;;;8.88;100.00;100389.38;5030529;28;20046;-74
2023/05/15 04:09:05;;;;;;;8.23;4.28;;;;;;;9.67;100.00;100509.41;5029872;28;20050;-73
2023/05/15 04:11:30;;;;;;;6.72;3.90;;;;;;;9.67;100.00;100504.16;5028757;28;20049;-74
2023/05/15 04:13:56;;;;;;;8.45;4.30;;;;;;;9.38;100.00;100477.78;5037312;28;20071;-76
2023/05/15 04:16:21;;;;;;;7.32;3.80;;;;;;;9.55;100.00;100490.97;5017544;28;20041;-74
2023/05/15 04:18:47;;;;;;;6.47;4.43;;;;;;;9.51;100.00;100492.72;5021742;28;20069;-76
2023/05/15 04:21:12;;;;;;;6.10;4.28;;;;;;;9.28;100.00;100415.78;5022442;28;20128;-73
2023/05/15 04:23:40;;;;;;;5.32;4.07;;;;;;;9.16;100.00;100421.81;5026119;28;20046;-78
2023/05/15 04:26:07;;;;;;;6.30;3.83;;;;;;;9.21;100.00;100403.53;5043384;28;20052;-75
2023/05/15 04:28:32;;;;;;;5.68;3.88;;;;;;;9.27;100.00;100398.31;5035500;28;20037;-76
2023/05/15 04:30:58;;;;;;;7.68;4.28;;;;;;;9.94;100.00;100478.94;5035008;28;20107;-74
2023/05/15 04:33:23;;;;;;;7.70;4.50;;;;;;;9.50;100.00;100420.25;5032423;28;20095;-77
2023/05/15 04:35:49;;;;;;;5.72;4.13;;;;;;;10.36;100.00;100561.28;5038756;28;20067;-79
2023/05/15 04:38:15;;;;;;;4.20;2.78;;;;;;;9.24;100.00;100351.16;5029663;28;20052;-74
2023/05/15 04:40:40;;;;;;;4.65;3.50;;;;;;;10.45;100.00;100544.69;5036746;28;20040;-77
2023/05/15 04:43:06;;;;;;;6.13;4.60;;;;;;;10.32;100.00;100536.81;5028407;28;20045;-75
2023/05/15 04:45:31;;;;;;;6.93;4.30;;;;;;;10.24;100.00;100520.13;5022949;28;20050;-76
2023/05/15 04:47:57;;;;;;;6.47;3.88;;;;;;;9.83;100.00;100426.50;5027895;28;20041;-76
2023/05/15 04:50:22;;;;;;;7.03;4.10;;;;;;;10.63;100.00;100546.47;5040535;28;20045;-79
2023/05/15 04:52:48;;;;;;;9.75;4.47;;;;;;;10.73;100.00;100559.63;5044885;28;20068;-75
2023/05/15 04:55:13;;;;;;;4.97;3.58;;;;;;;10.06;100.00;100437.03;5034510;28;20436;-75
2023/05/15 04:57:39;;;;;;;7.35;4.70;;;;;;;9.93;100.00;100377.59;5027382;28;20053;-74
2023/05/15 05:00:10;;;;;;;7.70;4.18;;;;;;;10.29;100.00;100454.59;5034120;28;20065;-80
2023/05/15 05:02:36;;;;;;;7.97;4.53;;;;;;;11.04;100.00;100583.28;5033824;28;20041;-76
2023/05/15 05:05:02;;;;;;;4.50;2.65;;;;;;;11.20;100.00;100582.41;5028431;28;20037;-78
2023/05/15 05:07:27;;;;;;;7.15;4.28;;;;;;;10.53;100.00;100448.50;5029554;28;20698;-76
2023/05/15 05:09:53;;;;;;;9.52;4.10;;;;;;;10.24;100.00;100422.22;5029445;28;20132;-76
2023/05/15 05:12:18;;;;;;;6.40;4.13;;;;;;;10.92;100.00;100567.53;5037052;28;20072;-79
2023/05/15 05:14:44;;;;;;;6.63;4.07;;;;;;;10.82;100.00;100568.41;5037488;28;20076;-75
2023/05/15 05:17:09;;;;;;;8.07;4.30;;;;;;;10.73;100.00;100475.63;5028415;28;20088;-74
2023/05/15 05:19:35;;;;;;;5.25;3.65;;;;;;;11.86;100.00;100531.50;5031206;28;20033;-74
2023/05/15 05:22:03;;;;;;;7.70;4.45;;;;;;;11.45;100.00;100434.38;5034829;28;20048;-74
2023/05/15 05:24:30;;;;;;;5.90;3.80;;;;;;;12.23;100.00;100444.56;5040056;28;20103;-75
2023/05/15 05:26:57;;;;;;;5.60;3.30;;;;;;;12.60;100.00;100565.41;5022869;28;20379;-73
2023/05/15 05:29:23;;;;;;;6.75;4.15;;;;;;;12.98;100.00;100585.34;5030087;28;20071;-76
2023/05/15 05:31:48;;;;;;;4.85;2.83;;;;;;;12.23;100.00;100457.72;5031735;28;20353;-77
2023/05/15 05:34:14;;;;;;;5.18;3.58;;;;;;;13.01;100.00;100585.31;5020531;28;20676;-78
2023/05/15 05:36:39;;;;;;;4.22;3.08;;;;;;;13.18;100.00;100587.81;5021723;28;20061;-76
2023/05/15 05:39:05;;;;;;;5.15;3.05;;;;;;;13.49;100.00;100591.13;5025228;28;20082;-73
2023/05/15 05:41:31;;;;;;;9.82;3.88;;;;;;;13.13;100.00;100477.19;5024922;28;20440;-75
2023/05/15 05:43:56;;;;;;;4.78;3.33;;;;;;;13.71;100.00;100505.63;5022795;28;20033;-70
2023/05/15 05:46:22;;;;;;;6.70;3.90;;;;;;;13.74;100.00;100480.97;5025679;28;20425;-70
2023/05/15 05:48:47;;;;;;;4.80;3.60;;;;;;;14.46;100.00;100593.53;5018282;28;20057;-70
2023/05/15 05:51:14;;;;;;;4.07;2.88;;;;;;;14.30;100.00;100484.63;5029071;28;20040;-72
2023/05/15 05:53:40;;;;;;;5.38;3.28;;;;;;;15.54;100.00;100578.72;5017387;28;20042;-71
2023/05/15 05:56:05;;;;;;;5.65;2.95;;;;;;;14.88;100.00;100580.66;5027117;28;20065;-71
2023/05/15 05:58:31;;;;;;;5.45;2.92;;;;;;;14.76;100.00;100638.97;5023348;28;20061;-72
2023/05/15 06:00:57;;;;;;;4.10;2.65;;;;;;;14.66;100.00;100614.44;5019407;28;20492;-70
2023/05/15 06:03:23;;;;;;;5.80;3.30;;;;;;;14.59;100.00;100567.03;5029773;28;20121;-72
2023/05/15 06:05:48;;;;;;;5.32;3.45;;;;;;;14.32;100.00;100529.50;5030105;28;20060;-71
2023/05/15 06:08:14;;;;;;;5.65;1.98;;;;;;;15.13;100.00;100625.22;5029681;28;20037;-72
2023/05/15 06:10:41;;;;;;;3.65;2.40;;;;;;;15.72;100.00;100541.38;5036368;28;20033;-71
2023/05/15 06:13:06;;;;;;;3.53;2.45;;;;;;;16.99;100.00;100650.88;5006916;28;20088;-71
2023/05/15 06:15:32;;;;;;;5.90;3.17;;;;;;;15.09;100.00;100554.81;5023513;28;20049;-71
2023/05/15 06:17:57;;;;;;;4.13;2.53;;;;;;;15.52;100.00;100638.69;5029803;28;20148;-74
2023/05/15 06:20:23;;;;;;;4.72;3.05;;;;;;;16.43;100.00;100629.97;5036636;28;20045;-72
2023/05/15 06:22:48;;;;;;;3.80;2.60;;;;;;;15.90;100.00;100630.13;5028040;28;20068;-70
2023/05/15 06:25:14;;;;;;;3.65;2.75;;;;;;;16.23;100.00;100628.59;5055999;28;20045;-71
2023/05/15 06:27:40;;;;;;;5.50;2.47;;;;;;;15.51;100.00;100549.69;5027730;28;20049;-71
2023/05/15 06:30:07;;;;;;;3.25;2.60;;;;;;;15.86;100.00;100505.84;5036118;28;20158;-71
2023/05/15 06:32:33;;;;;;;3.22;2.15;;;;;;;16.21;100.00;100609.22;5028594;28;20033;-71
2023/05/15 06:34:58;;;;;;;6.00;2.60;;;;;;;15.73;100.00;100613.69;5012113;28;20033;-72
2023/05/15 06:37:24;;;;;;;5.53;2.72;;;;;;;16.82;100.00;100604.44;5006847;28;20025;-70
2023/05/15 06:39:49;;;;;;;4.40;2.70;;;;;;;16.23;100.00;100575.66;5011711;28;20412;-70
2023/05/15 06:42:14;;;;;;;5.07;3.05;;;;;;;16.04;100.00;100539.88;5014888;28;20046;-72
2023/05/15 06:44:40;;;;;;;3.88;2.30;;;;;;;16.11;100.00;100581.22;5014911;28;20045;-72
2023/05/15 06:47:06;;;;;;;4.93;2.75;;;;;;;16.04;100.00;100508.97;5013189;28;20037;-72
2023/05/15 06:49:31;;;;;;;2.90;1.98;;;;;;;16.53;100.00;100570.63;5008938;28;20420;-71
2023/05/15 06:51:57;;;;;;;8.20;2.20;;;;;;;15.68;100.00;100499.09;5011552;28;20053;-70
2023/05/15 06:54:22;;;;;;;6.68;2.40;;;;;;;16.64;100.00;100578.31;5004992;28;20068;-70
2023/05/15 06:56:48;;;;;;;11.75;2.72;;;;;;;15.85;100.00;100456.47;5000916;28;20753;-71
2023/05/15 06:59:13;;;;;;;3.25;2.22;;;;;;;15.22;100.00;100449.72;5014010;28;20065;-71
2023/05/15 07:01:38;;;;;;;4.35;2.90;;;;;;;15.57;100.00;100446.44;5005536;28;20371;-72
2023/05/15 07:04:04;;;;;;;6.30;2.10;;;;;;;15.90;100.00;100458.13;5014660;28;20041;-70
2023/05/15 07:06:30;;;;;;;3.45;2.35;;;;;;;16.36;100.00;100472.97;5013062;28;20051;-70
2023/05/15 07:08:57;;;;;;;3.45;2.03;;;;;;;16.53;100.00;100548.53;5017071;28;20051;-74
2023/05/15 07:11:22;;;;;;;3.28;2.00;;;;;;;15.74;100.00;100448.75;4995351;28;20057;-71
2023/05/15 07:13:48;;;;;;;3.95;2.50;;;;;;;16.25;100.00;100557.09;5004839;28;20136;-71
2023/05/15 07:16:13;;;;;;;3.15;2.10;;;;;;;17.13;100.00;100553.34;5007716;28;20133;-72
2023/05/15 07:18:39;;;;;;;3.03;2.15;;;;;;;16.34;100.00;100559.56;4997541;28;20069;-72
2023/05/15 07:21:04;;;;;;;3.40;1.95;;;;;;;16.78;100.00;100532.94;5008314;28;20052;-73
2023/05/15 07:23:30;;;;;;;3.00;1.67;;;;;;;16.66;100.00;100478.47;5032054;28;20409;-76
2023/05/15 07:25:55;;;;;;;3.55;2.30;;;;;;;16.70;100.00;100569.38;5030737;28;20449;-71
2023/05/15 07:28:21;;;;;;;6.20;2.30;;;;;;;17.15;100.00;100554.16;5012538;28;20772;-74
2023/05/15 07:30:46;;;;;;;2.90;1.90;;;;;;;16.32;100.00;100491.59;5000345;28;20119;-72
2023/05/15 07:33:12;;;;;;;3.30;1.60;;;;;;;16.98;100.00;100570.50;4997809;28;20190;-72
2023/05/15 07:35:37;;;;;;;3.72;2.10;;;;;;;16.48;100.00;100453.28;5005488;28;20038;-71
2023/05/15 07:38:03;;;;;;;5.40;2.33;;;;;;;16.91;100.00;100523.84;5024513;28;20576;-69
2023/05/15 07:40:29;;;;;;;8.35;3.42;;;;;;;16.51;100.00;100530.03;5024737;28;20091;-71
2023/05/15 07:42:54;;;;;;;3.60;2.40;;;;;;;16.11;100.00;100500.88;5022420;28;20049;-71
2023/05/15 07:45:20;;;;;;;2.85;1.92;;;;;;;16.81;100.00;100557.66;5024051;28;20040;-71
2023/05/15 07:47:47;;;;;;;3.78;1.95;;;;;;;16.63;100.00;100442.31;5021825;28;20825;-77
2023/05/15 07:50:14;;;;;;;4.57;1.83;;;;;;;17.83;100.00;100555.09;5023457;28;20041;-74
2023/05/15 07:52:40;;;;;;;5.30;1.75;;;;;;;17.13;100.00;100542.72;5025571;28;20038;-73
2023/05/15 07:55:06;;;;;;;3.50;1.50;;;;;;;17.21;100.00;100561.97;5024883;28;20052;-73
2023/05/15 07:57:31;;;;;;;4.53;2.45;;;;;;;17.30;100.00;100563.50;5025754;28;20042;-72
2023/05/15 07:59:57;;;;;;;6.05;2.33;;;;;;;16.72;100.00;100533.09;5027816;28;20042;-73
2023/05/15 08:02:23;;;;;;;3.95;2.65;;;;;;;17.52;100.00;100527.56;5024586;28;20048;-73
2023/05/15 08:04:48;;;;;;;5.70;2.45;;;;;;;17.86;100.00;100555.00;5024474;28;20461;-72
2023/05/15 08:07:14;;;;;;;5.28;2.30;;;;;;;17.86;100.00;100585.09;5038029;28;20188;-70
2023/05/15 08:09:40;;;;;;;3.47;2.17;;;;;;;17.73;100.00;100480.13;5024509;28;20702;-71
2023/05/15 08:12:19;;;;;;;4.95;2.67;;;;;;;17.47;100.00;100443.72;5023177;28;20057;-72
2023/05/15 08:14:53;;;;;;;5.70;1.75;;;;;;;17.49;100.00;100457.81;5021950;28;20320;-72
2023/05/15 08:17:19;;;;;;;3.75;1.70;;;;;;;17.93;100.00;100458.31;5018995;28;20500;-71
2023/05/15 08:19:45;;;;;;;4.20;2.33;;;;;;;18.40;100.00;100561.41;5033392;28;20045;-70
2023/05/15 08:22:11;;;;;;;4.10;2.38;;;;;;;17.63;100.00;100468.91;5025810;28;20141;-71
2023/05/15 08:24:37;;;;;;;3.75;2.13;;;;;;;18.80;100.00;100555.78;5022871;28;20141;-71
2023/05/15 08:27:05;;;;;;;4.20;2.38;;;;;;;19.45;100.00;100559.84;5026547;28;20533;-73
2023/05/15 08:29:30;;;;;;;4.25;2.38;;;;;;;18.15;100.00;100439.97;5023194;28;20183;-71
2023/05/15 08:31:56;;;;;;;3.05;1.85;;;;;;;18.57;100.00;100535.22;5024173;28;20549;-71
2023/05/15 08:34:22;;;;;;;2.70;1.73;;;;;;;18.44;100.00;100438.19;5024471;28;20025;-71
2023/05/15 08:36:47;;;;;;;2.30;1.88;;;;;;;19.86;100.00;100562.88;5026528;28;20536;-73
2023/05/15 08:39:13;;;;;;;3.00;1.67;;;;;;;19.02;100.00;100448.72;5027502;28;20057;-72
2023/05/15 08:42:05;;;;;;;5.40;2.72;;;;;;;19.59;100.00;100565.53;5021778;28;20056;-72
2023/05/15 08:44:32;;;;;;;3.38;2.10;;;;;;;20.11;100.00;100540.66;5021833;28;20052;-71
2023/05/15 08:46:58;;;;;;;3.40;2.65;;;;;;;20.18;100.00;100555.47;5024147;28;21035;-70
2023/05/15 08:49:50;;;;;;;5.07;2.28;;;;;;;20.12;98.36;100555.72;5020276;28;20071;-72
2023/05/15 08:52:15;;;;;;;3.10;1.48;;;;;;;20.10;97.71;100534.47;5029076;28;20089;-71
2023/05/15 08:54:41;;;;;;;2.70;2.08;;;;;;;20.29;100.00;100520.44;5026527;28;20087;-73
2023/05/15 08:57:08;;;;;;;4.95;2.20;;;;;;;20.26;100.00;100430.84;5026561;28;20049;-72
2023/05/15 08:59:34;;;;;;;3.17;1.83;;;;;;;19.85;100.00;100493.69;5025459;28;20128;-74
2023/05/15 09:02:00;;;;;;;3.92;2.20;;;;;;;20.17;100.00;100441.84;5019621;28;20182;-70
2023/05/15 09:04:26;;;;;;;4.47;2.10;;;;;;;19.99;97.11;100483.38;5026307;28;20033;-70
2023/05/15 09:06:53;;;;;;;4.75;3.53;;;;;;;19.88;100.00;100483.81;5029027;28;20056;-72
2023/05/15 09:09:19;;;;;;;5.93;1.98;;;;;;;19.87;100.00;100508.69;5024241;28;20076;-71
2023/05/15 09:11:47;;;;;;;3.65;2.20;;;;;;;19.77;100.00;100406.97;5024708;28;20069;-70
2023/05/15 09:14:13;;;;;;;4.88;1.85;;;;;;;19.71;94.93;100409.84;5023168;28;20354;-71
2023/05/15 09:16:38;;;;;;;3.28;1.77;;;;;;;20.25;96.12;100407.75;5024037;28;20129;-74
2023/05/15 09:19:05;;;;;;;3.08;1.98;;;;;;;19.88;98.63;100490.91;5020802;28;20054;-73
2023/05/15 09:21:32;;;;;;;5.65;1.92;;;;;;;19.13;100.00;100417.31;5025482;28;20120;-72
2023/05/15 09:24:22;;;;;;;3.80;1.60;;;;;;;20.03;100.00;100435.25;5025991;28;20049;-71
2023/05/15 09:27:06;;;;;;;6.90;1.50;;;;;;;20.14;95.92;100416.19;5019943;28;20064;-71
2023/05/15 09:29:33;;;;;;;7.53;2.00;;;;;;;20.34;100.00;100455.38;5034924;28;20401;-72
2023/05/15 09:32:04;;;;;;;2.72;1.63;;;;;;;19.94;100.00;100493.34;5023354;28;20064;-71
2023/05/15 09:34:34;;;;;;;3.47;1.70;;;;;;;20.93;100.00;100515.25;5021785;28;20022;-72
2023/05/15 09:37:02;;;;;;;10.05;2.80;;;;;;;20.91;100.00;100428.19;5025123;28;20765;-70
2023/05/15 09:39:28;;;;;;;4.03;2.10;;;;;;;19.75;96.43;100414.13;5024753;28;20038;-72
2023/05/15 09:42:05;;;;;;;6.10;1.63;;;;;;;20.31;100.00;100409.34;5020844;28;20056;-70
2023/05/15 09:44:30;;;;;;;2.88;1.60;;;;;;;20.48;100.00;100430.81;5019761;28;20053;-71
2023/05/15 09:46:56;;;;;;;7.00;3.25;;;;;;;21.69;90.84;100516.44;5018194;28;20033;-72
2023/05/15 09:49:22;;;;;;;7.13;1.70;;;;;;;20.47;92.28;100410.44;5025596;28;20029;-70
2023/05/15 09:51:49;;;;;;;3.40;2.05;;;;;;;20.89;89.79;100433.63;5023506;28;20782;-71
2023/05/15 09:54:16;;;;;;;2.60;1.48;;;;;;;21.05;87.82;100493.41;5023900;28;20057;-73
2023/05/15 09:56:46;;;;;;;5.75;2.45;;;;;;;21.13;96.42;100516.22;5022932;28;20128;-72
2023/05/15 09:59:17;;;;;;;3.15;1.23;;;;;;;20.80;91.35;100490.00;5023737;28;20037;-70
2023/05/15 10:01:47;;;;;;;2.85;1.60;;;;;;;21.23;85.96;100517.56;5019806;28;20046;-71
2023/05/15 10:04:13;;;;;;;3.28;1.52;;;;;;;21.94;81.39;100408.50;5021391;28;20054;-72
2023/05/15 10:06:44;;;;;;;1.33;1.02;;;;;;;21.93;78.59;100375.53;5020041;28;20126;-71
2023/05/15 10:09:11;;;;;;;2.83;1.10;;;;;;;22.39;82.58;100417.94;5020138;28;20038;-72
2023/05/15 10:11:44;;;;;;;4.35;1.83;;;;;;;21.94;78.34;100416.50;5036236;28;20041;-71
2023/05/15 10:14:12;;;;;;;2.10;1.20;;;;;;;22.83;77.15;100405.94;5020681;28;20030;-69
2023/05/15 10:16:39;;;;;;;4.25;1.73;;;;;;;21.97;75.82;100399.47;5025769;28;20063;-71
2023/05/15 10:19:12;;;;;;;2.33;1.50;;;;;;;23.03;67.91;100383.53;5022314;28;20481;-72
2023/05/15 10:21:40;;;;;;;4.07;1.67;;;;;;;24.14;69.93;100497.25;5021559;28;20125;-71
2023/05/15 10:24:07;;;;;;;2.63;1.50;;;;;;;23.38;68.58;100491.47;5025718;28;20513;-71
2023/05/15 10:26:40;;;;;;;2.03;0.98;;;;;;;24.27;67.67;100475.97;5024328;28;20044;-71
2023/05/15 10:29:17;;;;;;;3.63;1.77;;;;;;;24.36;64.59;100383.41;5022134;28;20053;-71
2023/05/15 10:31:44;;;;;;;2.10;1.02;;;;;;;22.84;65.41;100397.84;5004071;28;20092;-71
2023/05/15 10:34:10;;;;;;;2.63;1.55;;;;;;;22.74;69.57;100393.91;5021046;28;20049;-70
2023/05/15 10:36:37;;;;;;;2.15;1.42;;;;;;;24.18;65.80;100421.03;5022510;28;20075;-70
2023/05/15 10:39:05;;;;;;;1.85;1.10;;;;;;;23.24;64.05;100470.75;5017729;28;20048;-71
2023/05/15 10:41:34;;;;;;;2.15;0.95;;;;;;;23.51;60.94;100457.75;5021446;28;20030;-70
2023/05/15 10:44:00;;;;;;;5.05;1.88;;;;;;;24.26;64.26;100427.81;5021359;28;20036;-71
2023/05/15 10:46:33;;;;;;;4.10;2.13;;;;;;;23.98;59.83;100448.13;5026504;28;20038;-72
2023/05/15 10:49:00;;;;;;;3.80;1.92;;;;;;;24.82;62.66;100426.38;5019037;28;20442;-71
2023/05/15 10:51:31;;;;;;;2.90;1.65;;;;;;;24.63;62.85;100414.03;5023752;28;20046;-72
2023/05/15 10:53:59;;;;;;;3.50;2.08;;;;;;;24.08;62.05;100429.69;5021956;28;20049;-72
2023/05/15 10:56:28;;;;;;;3.00;1.42;;;;;;;22.21;66.36;100408.13;5020129;28;20048;-71
2023/05/15 10:58:54;;;;;;;2.97;1.20;;;;;;;22.77;68.92;100415.16;5022859;28;20037;-71
2023/05/15 11:01:27;;;;;;;3.15;1.83;;;;;;;22.82;68.13;100366.75;5004491;28;20119;-72
2023/05/15 11:04:11;;;;;;;;;;;;;;;23.87;66.48;100437.97;5003834;28;20049;-71
2023/05/15 11:06:38;;;;;;;1.08;0.75;;;;;;;23.48;61.84;100372.19;4996807;28;19951;-73
2023/05/15 11:09:23;;;;;;;6.38;0.90;;;;;;;24.08;61.30;100449.31;5001118;28;20052;-70
2023/05/15 11:11:51;;;;;;;2.28;1.20;;;;;;;23.90;65.34;100463.75;5011098;28;20038;-72
2023/05/15 11:14:20;;;;;;;1.88;0.98;;;;;;;23.02;62.66;100438.03;5001037;28;20064;-73
2023/05/15 11:16:52;;;;;;;1.50;0.93;;;;;;;22.78;65.77;100449.00;5003347;28;20056;-70
2023/05/15 11:19:43;;;;;;;3.90;3.50;;;;;;;23.99;63.51;100436.44;5022664;28;20072;-72
2023/05/15 11:22:15;;;;;;;2.60;1.23;;;;;;;23.86;64.07;100448.75;5013661;28;21631;-76
2023/05/15 11:24:57;;;;;;;7.30;2.65;;;;;;;24.42;61.15;100447.44;5022103;28;20045;-71